sensor_id;sensor_type;location;lat;lon;timestamp;temperature;humidity
35325;DHT22;35135;47.510;19.036;2024-03-25T00:02:08;22.00;51.60
35325;DHT22;35135;47.510;19.036;2024-03-25T00:04:33;22.00;51.60
35325;DHT22;35135;47.510;19.036;2024-03-25T00:06:59;22.00;51.60
35325;DHT22;35135;47.510;19.036;2024-03-25T00:09:25;22.00;51.60
35325;DHT22;35135;47.510;19.036;2024-03-25T00:11:50;21.90;51.60
35325;DHT22;35135;47.510;19.036;2024-03-25T00:14:23;21.90;51.50
35325;DHT22;35135;47.510;19.036;2024-03-25T00:16:49;21.90;51.50
35325;DHT22;35135;47.510;19.036;2024-03-25T00:19:15;21.90;51.50
35325;DHT22;35135;47.510;19.036;2024-03-25T00:21:40;21.90;51.50
35325;DHT22;35135;47.510;19.036;2024-03-25T00:24:07;21.90;52.10
35325;DHT22;35135;47.510;19.036;2024-03-25T00:26:33;21.90;51.50
35325;DHT22;35135;47.510;19.036;2024-03-25T00:28:59;21.90;51.60
35325;DHT22;35135;47.510;19.036;2024-03-25T00:31:24;21.90;51.50
35325;DHT22;35135;47.510;19.036;2024-03-25T00:33:50;21.90;51.50
35325;DHT22;35135;47.510;19.036;2024-03-25T00:36:16;21.90;51.50
35325;DHT22;35135;47.510;19.036;2024-03-25T00:38:43;21.90;51.40
35325;DHT22;35135;47.510;19.036;2024-03-25T00:41:09;21.90;51.50
35325;DHT22;35135;47.510;19.036;2024-03-25T00:43:34;21.90;51.40
35325;DHT22;35135;47.510;19.036;2024-03-25T00:46:00;21.90;51.40
35325;DHT22;35135;47.510;19.036;2024-03-25T00:48:26;21.90;51.40
35325;DHT22;35135;47.510;19.036;2024-03-25T00:50:52;21.90;51.40
35325;DHT22;35135;47.510;19.036;2024-03-25T00:53:18;21.90;51.40
35325;DHT22;35135;47.510;19.036;2024-03-25T00:55:44;21.90;51.40
35325;DHT22;35135;47.510;19.036;2024-03-25T00:58:09;21.90;51.40
35325;DHT22;35135;47.510;19.036;2024-03-25T01:00:35;21.80;51.30
35325;DHT22;35135;47.510;19.036;2024-03-25T01:03:01;21.80;51.40
35325;DHT22;35135;47.510;19.036;2024-03-25T01:05:27;21.80;51.30
35325;DHT22;35135;47.510;19.036;2024-03-25T01:07:53;21.80;51.30
35325;DHT22;35135;47.510;19.036;2024-03-25T01:10:19;21.80;51.30
35325;DHT22;35135;47.510;19.036;2024-03-25T01:12:44;21.80;51.30
35325;DHT22;35135;47.510;19.036;2024-03-25T01:15:11;21.80;51.30
35325;DHT22;35135;47.510;19.036;2024-03-25T01:17:37;21.80;51.90
35325;DHT22;35135;47.510;19.036;2024-03-25T01:20:03;21.80;51.30
35325;DHT22;35135;47.510;19.036;2024-03-25T01:22:33;21.80;51.20
35325;DHT22;35135;47.510;19.036;2024-03-25T01:24:59;21.80;51.30
35325;DHT22;35135;47.510;19.036;2024-03-25T01:27:25;21.80;51.20
35325;DHT22;35135;47.510;19.036;2024-03-25T01:29:51;21.80;51.20
35325;DHT22;35135;47.510;19.036;2024-03-25T01:32:16;21.80;51.20
35325;DHT22;35135;47.510;19.036;2024-03-25T01:34:42;21.80;51.20
35325;DHT22;35135;47.510;19.036;2024-03-25T01:37:08;21.70;51.20
35325;DHT22;35135;47.510;19.036;2024-03-25T01:39:33;21.70;51.20
35325;DHT22;35135;47.510;19.036;2024-03-25T01:41:59;21.80;51.20
35325;DHT22;35135;47.510;19.036;2024-03-25T01:44:24;21.70;51.20
35325;DHT22;35135;47.510;19.036;2024-03-25T01:46:51;21.70;51.20
35325;DHT22;35135;47.510;19.036;2024-03-25T01:49:19;21.70;51.10
35325;DHT22;35135;47.510;19.036;2024-03-25T01:51:45;21.70;51.10
35325;DHT22;35135;47.510;19.036;2024-03-25T01:54:11;21.70;51.10
35325;DHT22;35135;47.510;19.036;2024-03-25T01:56:41;21.70;51.10
35325;DHT22;35135;47.510;19.036;2024-03-25T01:59:07;21.70;51.10
35325;DHT22;35135;47.510;19.036;2024-03-25T02:01:33;21.70;51.10
35325;DHT22;35135;47.510;19.036;2024-03-25T02:03:59;21.70;51.00
35325;DHT22;35135;47.510;19.036;2024-03-25T02:06:27;21.70;51.00
35325;DHT22;35135;47.510;19.036;2024-03-25T02:08:55;21.70;51.00
35325;DHT22;35135;47.510;19.036;2024-03-25T02:11:22;21.70;51.10
35325;DHT22;35135;47.510;19.036;2024-03-25T02:13:52;21.70;51.00
35325;DHT22;35135;47.510;19.036;2024-03-25T02:16:17;21.70;51.00
35325;DHT22;35135;47.510;19.036;2024-03-25T02:18:43;21.70;51.00
35325;DHT22;35135;47.510;19.036;2024-03-25T02:21:09;21.70;51.00
35325;DHT22;35135;47.510;19.036;2024-03-25T02:23:38;21.70;51.00
35325;DHT22;35135;47.510;19.036;2024-03-25T02:26:04;21.70;51.00
35325;DHT22;35135;47.510;19.036;2024-03-25T02:28:30;21.70;51.00
35325;DHT22;35135;47.510;19.036;2024-03-25T02:30:55;21.60;50.90
35325;DHT22;35135;47.510;19.036;2024-03-25T02:33:21;21.60;50.90
35325;DHT22;35135;47.510;19.036;2024-03-25T02:35:47;21.70;51.00
35325;DHT22;35135;47.510;19.036;2024-03-25T02:38:12;21.60;50.90
35325;DHT22;35135;47.510;19.036;2024-03-25T02:40:40;21.60;50.90
35325;DHT22;35135;47.510;19.036;2024-03-25T02:43:06;21.60;50.90
35325;DHT22;35135;47.510;19.036;2024-03-25T02:45:33;21.60;50.90
35325;DHT22;35135;47.510;19.036;2024-03-25T02:47:59;21.60;50.90
35325;DHT22;35135;47.510;19.036;2024-03-25T02:50:24;21.60;50.90
35325;DHT22;35135;47.510;19.036;2024-03-25T02:52:50;21.60;50.90
35325;DHT22;35135;47.510;19.036;2024-03-25T02:55:16;21.60;50.90
35325;DHT22;35135;47.510;19.036;2024-03-25T02:57:41;21.60;50.90
35325;DHT22;35135;47.510;19.036;2024-03-25T03:00:07;21.60;50.90
35325;DHT22;35135;47.510;19.036;2024-03-25T03:02:34;21.60;50.90
35325;DHT22;35135;47.510;19.036;2024-03-25T03:05:00;21.60;50.90
35325;DHT22;35135;47.510;19.036;2024-03-25T03:07:26;21.60;50.90
35325;DHT22;35135;47.510;19.036;2024-03-25T03:09:52;21.60;51.40
35325;DHT22;35135;47.510;19.036;2024-03-25T03:12:17;21.60;50.90
35325;DHT22;35135;47.510;19.036;2024-03-25T03:14:43;21.60;50.90
35325;DHT22;35135;47.510;19.036;2024-03-25T03:17:09;21.60;51.40
35325;DHT22;35135;47.510;19.036;2024-03-25T03:19:34;21.50;50.80
35325;DHT22;35135;47.510;19.036;2024-03-25T03:22:00;21.50;50.80
35325;DHT22;35135;47.510;19.036;2024-03-25T03:24:25;21.60;50.90
35325;DHT22;35135;47.510;19.036;2024-03-25T03:26:51;21.60;50.80
35325;DHT22;35135;47.510;19.036;2024-03-25T03:29:17;21.50;50.80
35325;DHT22;35135;47.510;19.036;2024-03-25T03:31:44;21.60;50.90
35325;DHT22;35135;47.510;19.036;2024-03-25T03:34:09;21.50;50.80
35325;DHT22;35135;47.510;19.036;2024-03-25T03:36:35;21.60;50.90
35325;DHT22;35135;47.510;19.036;2024-03-25T03:39:00;21.50;50.80
35325;DHT22;35135;47.510;19.036;2024-03-25T03:41:26;21.50;50.80
35325;DHT22;35135;47.510;19.036;2024-03-25T03:43:52;21.50;50.80
35325;DHT22;35135;47.510;19.036;2024-03-25T03:46:17;21.50;50.80
35325;DHT22;35135;47.510;19.036;2024-03-25T03:48:43;21.50;50.80
35325;DHT22;35135;47.510;19.036;2024-03-25T03:51:09;21.50;50.80
35325;DHT22;35135;47.510;19.036;2024-03-25T03:53:35;21.50;50.80
35325;DHT22;35135;47.510;19.036;2024-03-25T03:56:03;21.50;50.80
35325;DHT22;35135;47.510;19.036;2024-03-25T03:58:30;21.50;50.80
35325;DHT22;35135;47.510;19.036;2024-03-25T04:00:56;21.50;50.80
35325;DHT22;35135;47.510;19.036;2024-03-25T04:03:22;21.50;50.80
35325;DHT22;35135;47.510;19.036;2024-03-25T04:05:47;21.50;50.80
35325;DHT22;35135;47.510;19.036;2024-03-25T04:08:13;21.50;51.30
35325;DHT22;35135;47.510;19.036;2024-03-25T04:10:39;21.50;50.70
35325;DHT22;35135;47.510;19.036;2024-03-25T04:13:06;21.50;50.70
35325;DHT22;35135;47.510;19.036;2024-03-25T04:15:37;21.50;50.70
35325;DHT22;35135;47.510;19.036;2024-03-25T04:18:03;21.50;50.70
35325;DHT22;35135;47.510;19.036;2024-03-25T04:20:29;21.50;50.80
35325;DHT22;35135;47.510;19.036;2024-03-25T04:22:55;21.50;50.70
35325;DHT22;35135;47.510;19.036;2024-03-25T04:25:21;21.50;50.70
35325;DHT22;35135;47.510;19.036;2024-03-25T04:27:47;21.50;50.70
35325;DHT22;35135;47.510;19.036;2024-03-25T04:30:13;21.40;50.70
35325;DHT22;35135;47.510;19.036;2024-03-25T04:32:40;21.50;50.70
35325;DHT22;35135;47.510;19.036;2024-03-25T04:35:06;21.40;50.70
35325;DHT22;35135;47.510;19.036;2024-03-25T04:37:33;21.40;50.60
35325;DHT22;35135;47.510;19.036;2024-03-25T04:39:59;21.50;50.70
35325;DHT22;35135;47.510;19.036;2024-03-25T04:42:26;21.40;50.70
35325;DHT22;35135;47.510;19.036;2024-03-25T04:44:51;21.40;50.60
35325;DHT22;35135;47.510;19.036;2024-03-25T04:47:17;21.50;51.30
35325;DHT22;35135;47.510;19.036;2024-03-25T04:49:43;21.50;50.70
35325;DHT22;35135;47.510;19.036;2024-03-25T04:52:10;21.50;50.70
35325;DHT22;35135;47.510;19.036;2024-03-25T04:54:38;21.40;50.60
35325;DHT22;35135;47.510;19.036;2024-03-25T04:57:04;21.40;51.20
35325;DHT22;35135;47.510;19.036;2024-03-25T04:59:31;21.40;50.60
35325;DHT22;35135;47.510;19.036;2024-03-25T05:01:57;21.40;50.60
35325;DHT22;35135;47.510;19.036;2024-03-25T05:04:23;21.40;50.60
35325;DHT22;35135;47.510;19.036;2024-03-25T05:06:50;21.40;50.60
35325;DHT22;35135;47.510;19.036;2024-03-25T05:09:15;21.40;50.60
35325;DHT22;35135;47.510;19.036;2024-03-25T05:11:42;21.40;50.60
35325;DHT22;35135;47.510;19.036;2024-03-25T05:14:07;21.40;50.60
35325;DHT22;35135;47.510;19.036;2024-03-25T05:16:33;21.40;50.60
35325;DHT22;35135;47.510;19.036;2024-03-25T05:18:59;21.40;50.60
35325;DHT22;35135;47.510;19.036;2024-03-25T05:21:24;21.40;50.50
35325;DHT22;35135;47.510;19.036;2024-03-25T05:23:50;21.40;50.60
35325;DHT22;35135;47.510;19.036;2024-03-25T05:26:16;21.40;50.60
35325;DHT22;35135;47.510;19.036;2024-03-25T05:28:41;21.40;50.60
35325;DHT22;35135;47.510;19.036;2024-03-25T05:31:08;21.40;50.60
35325;DHT22;35135;47.510;19.036;2024-03-25T05:33:34;21.40;50.50
35325;DHT22;35135;47.510;19.036;2024-03-25T05:36:00;21.40;50.50
35325;DHT22;35135;47.510;19.036;2024-03-25T05:38:26;21.40;50.50
35325;DHT22;35135;47.510;19.036;2024-03-25T05:40:52;21.40;50.60
35325;DHT22;35135;47.510;19.036;2024-03-25T05:43:18;21.40;50.50
35325;DHT22;35135;47.510;19.036;2024-03-25T05:45:55;21.40;50.50
35325;DHT22;35135;47.510;19.036;2024-03-25T05:48:21;21.40;50.50
35325;DHT22;35135;47.510;19.036;2024-03-25T05:51:05;21.40;50.50
35325;DHT22;35135;47.510;19.036;2024-03-25T05:53:33;21.40;50.50
35325;DHT22;35135;47.510;19.036;2024-03-25T05:55:59;21.40;50.50
35325;DHT22;35135;47.510;19.036;2024-03-25T05:58:25;21.40;50.50
35325;DHT22;35135;47.510;19.036;2024-03-25T06:00:52;21.40;50.50
35325;DHT22;35135;47.510;19.036;2024-03-25T06:03:21;21.40;50.50
35325;DHT22;35135;47.510;19.036;2024-03-25T06:05:48;21.40;50.50
35325;DHT22;35135;47.510;19.036;2024-03-25T06:08:14;21.40;50.50
35325;DHT22;35135;47.510;19.036;2024-03-25T06:10:50;21.40;50.50
35325;DHT22;35135;47.510;19.036;2024-03-25T06:13:16;21.40;50.50
35325;DHT22;35135;47.510;19.036;2024-03-25T06:15:42;21.40;50.60
35325;DHT22;35135;47.510;19.036;2024-03-25T06:18:09;21.40;50.80
35325;DHT22;35135;47.510;19.036;2024-03-25T06:20:34;21.40;50.60
35325;DHT22;35135;47.510;19.036;2024-03-25T06:23:00;21.50;50.60
35325;DHT22;35135;47.510;19.036;2024-03-25T06:25:27;21.50;50.40
35325;DHT22;35135;47.510;19.036;2024-03-25T06:27:54;21.60;50.50
35325;DHT22;35135;47.510;19.036;2024-03-25T06:30:19;21.50;50.50
35325;DHT22;35135;47.510;19.036;2024-03-25T06:33:03;21.50;50.50
35325;DHT22;35135;47.510;19.036;2024-03-25T06:35:47;21.60;50.90
35325;DHT22;35135;47.510;19.036;2024-03-25T06:38:13;21.70;50.90
35325;DHT22;35135;47.510;19.036;2024-03-25T06:40:39;21.80;50.70
35325;DHT22;35135;47.510;19.036;2024-03-25T06:43:05;21.90;50.60
35325;DHT22;35135;47.510;19.036;2024-03-25T06:45:31;22.00;50.10
35325;DHT22;35135;47.510;19.036;2024-03-25T06:47:57;22.00;49.80
35325;DHT22;35135;47.510;19.036;2024-03-25T06:50:23;21.90;49.80
35325;DHT22;35135;47.510;19.036;2024-03-25T06:52:49;21.90;49.90
35325;DHT22;35135;47.510;19.036;2024-03-25T06:55:15;21.90;49.80
35325;DHT22;35135;47.510;19.036;2024-03-25T06:57:41;21.80;49.80
35325;DHT22;35135;47.510;19.036;2024-03-25T07:00:07;21.80;49.80
35325;DHT22;35135;47.510;19.036;2024-03-25T07:02:38;21.80;49.90
35325;DHT22;35135;47.510;19.036;2024-03-25T07:05:05;21.90;49.90
35325;DHT22;35135;47.510;19.036;2024-03-25T07:07:31;21.90;49.90
35325;DHT22;35135;47.510;19.036;2024-03-25T07:09:57;22.00;49.80
35325;DHT22;35135;47.510;19.036;2024-03-25T07:12:22;21.90;49.80
35325;DHT22;35135;47.510;19.036;2024-03-25T07:14:48;21.90;49.90
35325;DHT22;35135;47.510;19.036;2024-03-25T07:17:14;21.90;49.90
35325;DHT22;35135;47.510;19.036;2024-03-25T07:19:40;21.90;49.90
35325;DHT22;35135;47.510;19.036;2024-03-25T07:22:05;22.00;49.90
35325;DHT22;35135;47.510;19.036;2024-03-25T07:24:31;22.00;49.90
35325;DHT22;35135;47.510;19.036;2024-03-25T07:26:57;22.00;49.90
35325;DHT22;35135;47.510;19.036;2024-03-25T07:29:23;22.10;49.90
35325;DHT22;35135;47.510;19.036;2024-03-25T07:31:49;22.10;49.80
35325;DHT22;35135;47.510;19.036;2024-03-25T07:34:14;22.10;49.80
35325;DHT22;35135;47.510;19.036;2024-03-25T07:36:40;22.10;50.40
35325;DHT22;35135;47.510;19.036;2024-03-25T07:39:06;22.10;49.90
35325;DHT22;35135;47.510;19.036;2024-03-25T07:41:31;22.10;49.90
35325;DHT22;35135;47.510;19.036;2024-03-25T07:43:57;22.00;49.90
35325;DHT22;35135;47.510;19.036;2024-03-25T07:46:23;22.00;50.00
35325;DHT22;35135;47.510;19.036;2024-03-25T07:48:49;22.00;50.00
35325;DHT22;35135;47.510;19.036;2024-03-25T07:51:14;22.00;50.10
35325;DHT22;35135;47.510;19.036;2024-03-25T07:53:40;22.00;50.10
35325;DHT22;35135;47.510;19.036;2024-03-25T07:56:06;22.00;50.10
35325;DHT22;35135;47.510;19.036;2024-03-25T07:58:31;22.00;50.20
35325;DHT22;35135;47.510;19.036;2024-03-25T08:00:57;22.00;50.10
35325;DHT22;35135;47.510;19.036;2024-03-25T08:03:23;22.10;50.20
35325;DHT22;35135;47.510;19.036;2024-03-25T08:05:50;22.10;50.20
35325;DHT22;35135;47.510;19.036;2024-03-25T08:08:16;22.00;50.10
35325;DHT22;35135;47.510;19.036;2024-03-25T08:10:42;22.10;50.20
35325;DHT22;35135;47.510;19.036;2024-03-25T08:13:07;22.10;50.20
35325;DHT22;35135;47.510;19.036;2024-03-25T08:15:33;22.10;50.10
35325;DHT22;35135;47.510;19.036;2024-03-25T08:17:59;22.10;50.10
35325;DHT22;35135;47.510;19.036;2024-03-25T08:20:24;22.10;50.10
35325;DHT22;35135;47.510;19.036;2024-03-25T08:22:50;22.10;50.20
35325;DHT22;35135;47.510;19.036;2024-03-25T08:25:16;22.10;50.30
35325;DHT22;35135;47.510;19.036;2024-03-25T08:27:41;22.10;50.30
35325;DHT22;35135;47.510;19.036;2024-03-25T08:30:08;22.10;50.30
35325;DHT22;35135;47.510;19.036;2024-03-25T08:32:33;22.10;50.20
35325;DHT22;35135;47.510;19.036;2024-03-25T08:34:59;22.10;50.80
35325;DHT22;35135;47.510;19.036;2024-03-25T08:37:25;22.20;50.10
35325;DHT22;35135;47.510;19.036;2024-03-25T08:39:50;22.20;50.10
35325;DHT22;35135;47.510;19.036;2024-03-25T08:42:16;22.10;50.10
35325;DHT22;35135;47.510;19.036;2024-03-25T08:44:42;22.20;50.20
35325;DHT22;35135;47.510;19.036;2024-03-25T08:47:07;22.10;50.10
35325;DHT22;35135;47.510;19.036;2024-03-25T08:49:33;22.10;50.10
35325;DHT22;35135;47.510;19.036;2024-03-25T08:51:59;22.10;50.20
35325;DHT22;35135;47.510;19.036;2024-03-25T08:54:24;22.10;50.30
35325;DHT22;35135;47.510;19.036;2024-03-25T08:56:50;22.10;50.30
35325;DHT22;35135;47.510;19.036;2024-03-25T08:59:15;22.10;50.30
35325;DHT22;35135;47.510;19.036;2024-03-25T09:01:41;22.00;50.30
35325;DHT22;35135;47.510;19.036;2024-03-25T09:04:07;22.00;50.30
35325;DHT22;35135;47.510;19.036;2024-03-25T09:06:33;22.10;50.40
35325;DHT22;35135;47.510;19.036;2024-03-25T09:08:58;22.10;50.30
35325;DHT22;35135;47.510;19.036;2024-03-25T09:11:43;22.10;50.30
35325;DHT22;35135;47.510;19.036;2024-03-25T09:14:08;22.00;50.10
35325;DHT22;35135;47.510;19.036;2024-03-25T09:16:34;22.10;50.20
35325;DHT22;35135;47.510;19.036;2024-03-25T09:19:00;22.10;50.10
35325;DHT22;35135;47.510;19.036;2024-03-25T09:21:26;22.00;50.10
35325;DHT22;35135;47.510;19.036;2024-03-25T09:23:52;22.10;50.20
35325;DHT22;35135;47.510;19.036;2024-03-25T09:26:18;22.10;50.20
35325;DHT22;35135;47.510;19.036;2024-03-25T09:28:44;22.10;50.20
35325;DHT22;35135;47.510;19.036;2024-03-25T09:31:10;22.10;50.00
35325;DHT22;35135;47.510;19.036;2024-03-25T09:33:35;22.10;49.70
35325;DHT22;35135;47.510;19.036;2024-03-25T09:36:01;22.10;49.70
35325;DHT22;35135;47.510;19.036;2024-03-25T09:38:27;22.10;49.80
35325;DHT22;35135;47.510;19.036;2024-03-25T09:40:53;22.10;49.80
35325;DHT22;35135;47.510;19.036;2024-03-25T09:43:48;22.10;49.80
35325;DHT22;35135;47.510;19.036;2024-03-25T09:46:15;22.10;49.80
35325;DHT22;35135;47.510;19.036;2024-03-25T09:48:42;22.10;49.80
35325;DHT22;35135;47.510;19.036;2024-03-25T09:51:09;22.00;49.80
35325;DHT22;35135;47.510;19.036;2024-03-25T09:53:35;22.00;49.80
35325;DHT22;35135;47.510;19.036;2024-03-25T09:56:01;22.00;49.70
35325;DHT22;35135;47.510;19.036;2024-03-25T09:58:27;22.00;49.70
35325;DHT22;35135;47.510;19.036;2024-03-25T10:00:54;22.00;49.80
35325;DHT22;35135;47.510;19.036;2024-03-25T10:03:21;22.00;49.70
35325;DHT22;35135;47.510;19.036;2024-03-25T10:05:46;22.00;49.60
35325;DHT22;35135;47.510;19.036;2024-03-25T10:08:12;22.00;49.60
35325;DHT22;35135;47.510;19.036;2024-03-25T10:10:38;22.00;49.50
35325;DHT22;35135;47.510;19.036;2024-03-25T10:13:04;22.00;49.50
35325;DHT22;35135;47.510;19.036;2024-03-25T10:15:30;22.00;49.40
35325;DHT22;35135;47.510;19.036;2024-03-25T10:17:56;22.00;49.40
35325;DHT22;35135;47.510;19.036;2024-03-25T10:20:22;22.00;49.40
35325;DHT22;35135;47.510;19.036;2024-03-25T10:22:48;22.00;49.30
35325;DHT22;35135;47.510;19.036;2024-03-25T10:25:42;22.00;49.30
35325;DHT22;35135;47.510;19.036;2024-03-25T10:28:08;22.00;49.40
35325;DHT22;35135;47.510;19.036;2024-03-25T10:30:34;22.00;49.20
35325;DHT22;35135;47.510;19.036;2024-03-25T10:33:04;22.00;49.30
35325;DHT22;35135;47.510;19.036;2024-03-25T10:35:31;22.00;49.20
35325;DHT22;35135;47.510;19.036;2024-03-25T10:38:01;22.00;49.30
35325;DHT22;35135;47.510;19.036;2024-03-25T10:40:39;22.00;49.70
35325;DHT22;35135;47.510;19.036;2024-03-25T10:43:08;22.00;49.10
35325;DHT22;35135;47.510;19.036;2024-03-25T10:45:36;22.00;49.10
35325;DHT22;35135;47.510;19.036;2024-03-25T10:50:55;22.00;48.90
35325;DHT22;35135;47.510;19.036;2024-03-25T10:53:21;22.00;49.00
35325;DHT22;35135;47.510;19.036;2024-03-25T10:55:52;22.00;49.00
35325;DHT22;35135;47.510;19.036;2024-03-25T10:58:21;22.00;48.90
35325;DHT22;35135;47.510;19.036;2024-03-25T11:00:48;22.00;48.90
35325;DHT22;35135;47.510;19.036;2024-03-25T11:03:15;22.00;48.90
35325;DHT22;35135;47.510;19.036;2024-03-25T11:05:41;22.00;48.80
35325;DHT22;35135;47.510;19.036;2024-03-25T11:08:13;21.90;48.80
35325;DHT22;35135;47.510;19.036;2024-03-25T11:10:43;22.00;48.80
35325;DHT22;35135;47.510;19.036;2024-03-25T11:13:18;22.00;48.80
35325;DHT22;35135;47.510;19.036;2024-03-25T11:15:46;22.00;48.80
35325;DHT22;35135;47.510;19.036;2024-03-25T11:18:13;22.00;48.80
35325;DHT22;35135;47.510;19.036;2024-03-25T11:20:39;22.00;48.80
35325;DHT22;35135;47.510;19.036;2024-03-25T11:23:13;21.90;48.70
35325;DHT22;35135;47.510;19.036;2024-03-25T11:25:40;21.90;48.80
35325;DHT22;35135;47.510;19.036;2024-03-25T11:28:06;21.90;48.70
35325;DHT22;35135;47.510;19.036;2024-03-25T11:30:32;21.90;48.80
35325;DHT22;35135;47.510;19.036;2024-03-25T11:33:01;21.90;48.70
35325;DHT22;35135;47.510;19.036;2024-03-25T11:35:28;21.90;48.70
35325;DHT22;35135;47.510;19.036;2024-03-25T11:37:54;22.00;48.70
35325;DHT22;35135;47.510;19.036;2024-03-25T11:40:20;22.00;48.50
35325;DHT22;35135;47.510;19.036;2024-03-25T11:42:46;22.00;48.70
35325;DHT22;35135;47.510;19.036;2024-03-25T11:45:21;21.90;48.60
35325;DHT22;35135;47.510;19.036;2024-03-25T11:47:48;21.90;48.50
35325;DHT22;35135;47.510;19.036;2024-03-25T11:50:16;21.90;48.50
35325;DHT22;35135;47.510;19.036;2024-03-25T11:52:42;21.90;48.60
35325;DHT22;35135;47.510;19.036;2024-03-25T11:55:08;21.90;48.60
35325;DHT22;35135;47.510;19.036;2024-03-25T11:57:38;21.90;48.50
35325;DHT22;35135;47.510;19.036;2024-03-25T12:00:08;21.90;48.50
35325;DHT22;35135;47.510;19.036;2024-03-25T12:02:37;21.90;48.40
35325;DHT22;35135;47.510;19.036;2024-03-25T12:05:05;21.90;48.40
35325;DHT22;35135;47.510;19.036;2024-03-25T12:07:32;21.90;48.40
35325;DHT22;35135;47.510;19.036;2024-03-25T12:09:58;21.90;48.40
35325;DHT22;35135;47.510;19.036;2024-03-25T12:12:42;22.00;48.40
35325;DHT22;35135;47.510;19.036;2024-03-25T12:15:09;21.90;48.30
35325;DHT22;35135;47.510;19.036;2024-03-25T12:17:35;21.90;48.30
35325;DHT22;35135;47.510;19.036;2024-03-25T12:20:06;21.90;48.30
35325;DHT22;35135;47.510;19.036;2024-03-25T12:22:35;21.90;48.30
35325;DHT22;35135;47.510;19.036;2024-03-25T12:25:03;21.90;48.30
35325;DHT22;35135;47.510;19.036;2024-03-25T12:27:31;21.90;48.30
35325;DHT22;35135;47.510;19.036;2024-03-25T12:30:01;21.80;48.30
35325;DHT22;35135;47.510;19.036;2024-03-25T12:32:45;21.80;48.40
35325;DHT22;35135;47.510;19.036;2024-03-25T12:35:13;21.90;48.50
35325;DHT22;35135;47.510;19.036;2024-03-25T12:37:41;21.90;48.30
35325;DHT22;35135;47.510;19.036;2024-03-25T12:40:09;21.90;48.30
35325;DHT22;35135;47.510;19.036;2024-03-25T12:42:35;21.90;48.20
35325;DHT22;35135;47.510;19.036;2024-03-25T12:45:01;21.90;48.30
35325;DHT22;35135;47.510;19.036;2024-03-25T12:47:28;21.90;48.20
35325;DHT22;35135;47.510;19.036;2024-03-25T12:49:54;21.90;48.20
35325;DHT22;35135;47.510;19.036;2024-03-25T12:52:20;21.90;48.20
35325;DHT22;35135;47.510;19.036;2024-03-25T12:54:46;21.90;48.20
35325;DHT22;35135;47.510;19.036;2024-03-25T12:57:12;21.90;48.20
35325;DHT22;35135;47.510;19.036;2024-03-25T12:59:38;21.90;48.20
35325;DHT22;35135;47.510;19.036;2024-03-25T13:02:04;21.90;48.20
35325;DHT22;35135;47.510;19.036;2024-03-25T13:04:30;21.90;48.30
35325;DHT22;35135;47.510;19.036;2024-03-25T13:06:55;21.90;48.20
35325;DHT22;35135;47.510;19.036;2024-03-25T13:09:21;21.90;48.20
35325;DHT22;35135;47.510;19.036;2024-03-25T13:11:47;21.90;48.10
35325;DHT22;35135;47.510;19.036;2024-03-25T13:14:13;21.90;48.20
35325;DHT22;35135;47.510;19.036;2024-03-25T13:16:39;21.80;48.20
35325;DHT22;35135;47.510;19.036;2024-03-25T13:19:06;21.90;48.20
35325;DHT22;35135;47.510;19.036;2024-03-25T13:21:32;21.80;48.20
35325;DHT22;35135;47.510;19.036;2024-03-25T13:23:58;21.80;48.70
35325;DHT22;35135;47.510;19.036;2024-03-25T13:26:24;21.80;48.20
35325;DHT22;35135;47.510;19.036;2024-03-25T13:28:50;21.90;48.20
35325;DHT22;35135;47.510;19.036;2024-03-25T13:31:15;21.90;48.20
35325;DHT22;35135;47.510;19.036;2024-03-25T13:33:43;21.90;48.10
35325;DHT22;35135;47.510;19.036;2024-03-25T13:36:08;21.90;48.10
35325;DHT22;35135;47.510;19.036;2024-03-25T13:38:34;21.90;48.00
35325;DHT22;35135;47.510;19.036;2024-03-25T13:41:01;21.80;48.00
35325;DHT22;35135;47.510;19.036;2024-03-25T13:43:26;21.80;48.00
35325;DHT22;35135;47.510;19.036;2024-03-25T13:45:52;21.80;48.10
35325;DHT22;35135;47.510;19.036;2024-03-25T13:48:18;21.90;48.20
35325;DHT22;35135;47.510;19.036;2024-03-25T13:50:44;21.80;48.10
35325;DHT22;35135;47.510;19.036;2024-03-25T13:53:10;21.80;48.00
35325;DHT22;35135;47.510;19.036;2024-03-25T13:55:36;21.80;48.10
35325;DHT22;35135;47.510;19.036;2024-03-25T13:58:02;21.80;48.00
35325;DHT22;35135;47.510;19.036;2024-03-25T14:00:28;21.80;48.10
35325;DHT22;35135;47.510;19.036;2024-03-25T14:02:54;21.80;48.00
35325;DHT22;35135;47.510;19.036;2024-03-25T14:05:21;21.90;48.00
35325;DHT22;35135;47.510;19.036;2024-03-25T14:07:47;21.90;48.00
35325;DHT22;35135;47.510;19.036;2024-03-25T14:10:12;21.90;47.60
35325;DHT22;35135;47.510;19.036;2024-03-25T14:12:38;21.90;47.80
35325;DHT22;35135;47.510;19.036;2024-03-25T14:15:04;21.80;47.60
35325;DHT22;35135;47.510;19.036;2024-03-25T14:17:30;21.80;47.70
35325;DHT22;35135;47.510;19.036;2024-03-25T14:19:56;21.80;47.80
35325;DHT22;35135;47.510;19.036;2024-03-25T14:22:22;21.80;47.90
35325;DHT22;35135;47.510;19.036;2024-03-25T14:24:48;21.80;48.00
35325;DHT22;35135;47.510;19.036;2024-03-25T14:27:14;21.80;48.00
35325;DHT22;35135;47.510;19.036;2024-03-25T14:29:40;21.80;48.00
35325;DHT22;35135;47.510;19.036;2024-03-25T14:32:07;21.80;47.60
35325;DHT22;35135;47.510;19.036;2024-03-25T14:34:33;21.80;47.70
35325;DHT22;35135;47.510;19.036;2024-03-25T14:36:58;21.80;47.60
35325;DHT22;35135;47.510;19.036;2024-03-25T14:39:27;21.80;47.60
35325;DHT22;35135;47.510;19.036;2024-03-25T14:41:52;21.80;47.60
35325;DHT22;35135;47.510;19.036;2024-03-25T14:44:18;21.80;47.60
35325;DHT22;35135;47.510;19.036;2024-03-25T14:46:44;21.80;47.60
35325;DHT22;35135;47.510;19.036;2024-03-25T14:49:10;21.80;47.70
35325;DHT22;35135;47.510;19.036;2024-03-25T14:51:35;21.80;47.60
35325;DHT22;35135;47.510;19.036;2024-03-25T14:54:01;21.80;47.60
35325;DHT22;35135;47.510;19.036;2024-03-25T14:56:28;21.80;47.70
35325;DHT22;35135;47.510;19.036;2024-03-25T14:58:55;21.80;47.60
35325;DHT22;35135;47.510;19.036;2024-03-25T15:01:21;21.80;47.60
35325;DHT22;35135;47.510;19.036;2024-03-25T15:03:46;21.80;47.70
35325;DHT22;35135;47.510;19.036;2024-03-25T15:06:12;21.80;47.70
35325;DHT22;35135;47.510;19.036;2024-03-25T15:08:38;21.80;47.60
35325;DHT22;35135;47.510;19.036;2024-03-25T15:11:05;21.80;47.70
35325;DHT22;35135;47.510;19.036;2024-03-25T15:13:31;21.80;47.90
35325;DHT22;35135;47.510;19.036;2024-03-25T15:15:57;21.80;48.20